Time;durP1;ratioP1;P1;durP2;ratioP2;P2;SDS_P1;SDS_P2;PMS_P1;PMS_P2;Temp;Humidity;BMP_temperature;BMP_pressure;BME280_temperature;BME280_humidity;BME280_pressure;Samples;Min_cycle;Max_cycle;Signal;HPM_P1;HPM_P2
2022/08/18 00:02:56;;;;;;;9.98;5.28;;;;;;;;;;6119924;23;20621;-87
2022/08/18 00:06:02;;;;;;;11.20;5.80;;;;;;;;;;6125756;23;20233;-88
2022/08/18 00:09:09;;;;;;;9.63;5.20;;;;;;;;;;6122241;23;20173;-90
2022/08/18 00:12:16;;;;;;;9.13;5.80;;;;;;;;;;6120830;23;20675;-91
2022/08/18 00:15:21;;;;;;;9.02;5.80;;;;;;;;;;6121842;23;20185;-89
2022/08/18 00:18:27;;;;;;;10.70;5.82;;;;;;;;;;6119158;23;20621;-91
2022/08/18 00:21:33;;;;;;;7.60;5.57;;;;;;;;;;6121931;23;20169;-87
2022/08/18 00:24:40;;;;;;;11.18;5.97;;;;;;;;;;6121219;23;20298;-91
2022/08/18 00:27:46;;;;;;;10.63;6.10;;;;;;;;;;6121914;23;20173;-89
2022/08/18 00:30:51;;;;;;;9.68;5.72;;;;;;;;;;6122151;23;20193;-93
2022/08/18 00:33:57;;;;;;;10.00;5.10;;;;;;;;;;6121043;23;20193;-90
2022/08/18 00:37:02;;;;;;;7.35;5.00;;;;;;;;;;6120617;23;20177;-91
2022/08/18 00:40:10;;;;;;;10.35;5.90;;;;;;;;;;6119908;23;20177;-91
2022/08/18 00:43:18;;;;;;;11.63;5.70;;;;;;;;;;6121840;23;20209;-88
2022/08/18 00:46:26;;;;;;;12.50;5.70;;;;;;;;;;6122098;23;20237;-89
2022/08/18 00:49:31;;;;;;;8.32;5.53;;;;;;;;;;6123056;23;20190;-88
2022/08/18 00:52:37;;;;;;;9.75;5.78;;;;;;;;;;6119390;23;20216;-89
2022/08/18 00:55:48;;;;;;;10.73;5.50;;;;;;;;;;6120652;23;20285;-90
2022/08/18 00:58:56;;;;;;;7.80;5.47;;;;;;;;;;6119895;23;20177;-89
2022/08/18 01:02:03;;;;;;;9.73;6.15;;;;;;;;;;6120894;23;20213;-90
2022/08/18 01:05:11;;;;;;;12.15;5.70;;;;;;;;;;6120521;23;20184;-90
2022/08/18 01:08:17;;;;;;;10.52;5.65;;;;;;;;;;6118879;23;20246;-90
2022/08/18 01:11:26;;;;;;;10.70;5.18;;;;;;;;;;6119367;23;20157;-89
2022/08/18 01:14:31;;;;;;;11.60;5.20;;;;;;;;;;6119359;23;20169;-92
2022/08/18 01:28:01;;;;;;;9.90;5.18;;;;;;;;;;6120363;23;20169;-92
2022/08/18 01:31:10;;;;;;;10.02;5.80;;;;;;;;;;6120320;23;20165;-90
2022/08/18 01:34:15;;;;;;;7.75;4.85;;;;;;;;;;6118107;23;20168;-90
2022/08/18 01:37:23;;;;;;;9.75;5.35;;;;;;;;;;6118180;23;20213;-89
2022/08/18 01:40:31;;;;;;;7.82;4.97;;;;;;;;;;6119555;23;20153;-90
2022/08/18 01:43:37;;;;;;;7.55;5.30;;;;;;;;;;6120481;23;20173;-91
2022/08/18 01:46:42;;;;;;;7.47;4.78;;;;;;;;;;6120006;23;20169;-91
2022/08/18 01:49:47;;;;;;;6.85;4.65;;;;;;;;;;6119787;23;20617;-91
2022/08/18 01:52:54;;;;;;;7.60;4.57;;;;;;;;;;6118678;23;20193;-89
2022/08/18 01:56:04;;;;;;;7.82;4.15;;;;;;;;;;6119357;23;20166;-90
2022/08/18 01:59:13;;;;;;;7.65;4.13;;;;;;;;;;6119717;23;20164;-91
2022/08/18 02:02:23;;;;;;;6.15;4.43;;;;;;;;;;6120998;23;20173;-90
2022/08/18 02:05:32;;;;;;;8.45;4.20;;;;;;;;;;6119779;23;20217;-91
2022/08/18 02:08:37;;;;;;;7.15;3.90;;;;;;;;;;6116717;23;20173;-91
2022/08/18 02:11:44;;;;;;;6.97;3.97;;;;;;;;;;6118138;23;20182;-91
2022/08/18 02:14:50;;;;;;;5.95;4.20;;;;;;;;;;6119049;23;20184;-91
2022/08/18 02:17:55;;;;;;;8.30;3.95;;;;;;;;;;6119352;23;20248;-89
2022/08/18 02:21:07;;;;;;;8.85;4.18;;;;;;;;;;6121487;23;20173;-88
2022/08/18 02:24:14;;;;;;;10.30;4.25;;;;;;;;;;6120743;23;20153;-90
2022/08/18 02:27:21;;;;;;;9.35;4.45;;;;;;;;;;6122741;23;20168;-87
2022/08/18 02:30:26;;;;;;;9.60;4.45;;;;;;;;;;6120917;23;20271;-89
2022/08/18 02:33:35;;;;;;;7.38;4.43;;;;;;;;;;6121965;23;20247;-90
2022/08/18 02:36:40;;;;;;;9.05;4.60;;;;;;;;;;6122690;23;20239;-92
2022/08/18 02:39:45;;;;;;;5.55;4.07;;;;;;;;;;6121882;23;20173;-91
2022/08/18 02:42:55;;;;;;;8.68;4.50;;;;;;;;;;6118482;23;20197;-90
2022/08/18 02:46:00;;;;;;;7.47;4.20;;;;;;;;;;6119052;23;20173;-90
2022/08/18 02:49:06;;;;;;;7.47;4.55;;;;;;;;;;6118857;23;20201;-90
2022/08/18 02:52:11;;;;;;;8.85;4.40;;;;;;;;;;6118753;23;20621;-90
2022/08/18 02:55:16;;;;;;;9.10;4.43;;;;;;;;;;6118763;23;20617;-89
2022/08/18 02:58:23;;;;;;;7.78;4.38;;;;;;;;;;6119212;23;20531;-89
2022/08/18 03:01:30;;;;;;;9.00;4.95;;;;;;;;;;6118231;23;20152;-90
2022/08/18 03:04:35;;;;;;;9.63;4.32;;;;;;;;;;6120470;23;20208;-89
2022/08/18 03:07:40;;;;;;;10.70;4.28;;;;;;;;;;6120600;23;20543;-90
2022/08/18 03:10:46;;;;;;;8.02;4.57;;;;;;;;;;6119020;23;20246;-89
2022/08/18 03:13:52;;;;;;;7.70;4.38;;;;;;;;;;6117164;23;20229;-89
2022/08/18 03:16:58;;;;;;;7.22;4.30;;;;;;;;;;6120925;23;20173;-91
2022/08/18 03:20:04;;;;;;;8.23;4.45;;;;;;;;;;6118572;23;20289;-89
2022/08/18 03:23:09;;;;;;;7.78;4.60;;;;;;;;;;6119204;23;20173;-89
2022/08/18 03:26:15;;;;;;;8.98;4.70;;;;;;;;;;6120799;23;20285;-89
2022/08/18 03:29:21;;;;;;;6.78;4.40;;;;;;;;;;6119652;23;20205;-91
2022/08/18 03:32:29;;;;;;;10.00;4.68;;;;;;;;;;6118973;23;20544;-91
2022/08/18 03:35:35;;;;;;;9.82;4.47;;;;;;;;;;6119655;23;20173;-89
2022/08/18 03:38:43;;;;;;;9.07;4.30;;;;;;;;;;6120416;23;20617;-90
2022/08/18 03:41:48;;;;;;;14.30;5.07;;;;;;;;;;6119481;23;20164;-89
2022/08/18 03:44:55;;;;;;;10.65;4.95;;;;;;;;;;6119000;23;20221;-89
2022/08/18 03:48:01;;;;;;;8.15;4.47;;;;;;;;;;6117079;23;20193;-89
2022/08/18 03:51:09;;;;;;;9.27;4.93;;;;;;;;;;6118814;23;20714;-90
2022/08/18 03:54:15;;;;;;;8.88;4.40;;;;;;;;;;6119591;23;20217;-90
2022/08/18 03:57:20;;;;;;;10.23;4.80;;;;;;;;;;6120419;23;20505;-90
2022/08/18 04:00:27;;;;;;;9.68;5.20;;;;;;;;;;6120957;23;20173;-91
2022/08/18 04:03:32;;;;;;;10.18;4.82;;;;;;;;;;6119761;23;20179;-91
2022/08/18 04:06:39;;;;;;;10.45;5.47;;;;;;;;;;6120784;23;20177;-93
2022/08/18 04:09:46;;;;;;;10.38;5.68;;;;;;;;;;6121129;23;20169;-90
2022/08/18 04:12:51;;;;;;;16.30;5.97;;;;;;;;;;6121706;23;20196;-90
2022/08/18 04:15:59;;;;;;;18.02;5.40;;;;;;;;;;6122515;23;20170;-89
2022/08/18 04:19:05;;;;;;;11.85;5.28;;;;;;;;;;6123066;23;20169;-89
2022/08/18 04:22:10;;;;;;;8.32;4.93;;;;;;;;;;6121767;23;20621;-90
2022/08/18 04:25:15;;;;;;;8.18;5.00;;;;;;;;;;6122831;23;20177;-90
2022/08/18 04:28:20;;;;;;;13.77;5.35;;;;;;;;;;6121492;23;20165;-89
2022/08/18 04:31:28;;;;;;;12.32;5.32;;;;;;;;;;6121774;23;20213;-87
2022/08/18 04:34:40;;;;;;;19.92;5.82;;;;;;;;;;6123884;23;20213;-90
2022/08/18 04:37:45;;;;;;;10.95;5.88;;;;;;;;;;6120961;23;20587;-89
2022/08/18 04:40:51;;;;;;;14.15;5.70;;;;;;;;;;6122982;23;20227;-90
2022/08/18 04:43:57;;;;;;;13.30;5.57;;;;;;;;;;6123013;23;20173;-90
2022/08/18 04:47:05;;;;;;;17.30;5.95;;;;;;;;;;6120663;23;20165;-90
2022/08/18 04:50:11;;;;;;;12.25;5.30;;;;;;;;;;6122954;23;20180;-90
2022/08/18 04:56:40;;;;;;;14.45;5.15;;;;;;;;;;6121411;23;20178;-89
2022/08/18 04:59:46;;;;;;;13.98;5.70;;;;;;;;;;6123956;23;20608;-89
2022/08/18 05:02:53;;;;;;;10.15;5.43;;;;;;;;;;6123866;23;20305;-88
2022/08/18 05:05:59;;;;;;;7.55;5.05;;;;;;;;;;6121768;23;20169;-89
2022/08/18 05:09:05;;;;;;;12.77;5.50;;;;;;;;;;6121150;23;20177;-90
2022/08/18 05:12:12;;;;;;;12.15;5.43;;;;;;;;;;6121228;23;20157;-91
2022/08/18 05:15:19;;;;;;;12.25;5.65;;;;;;;;;;6123035;23;20172;-89
2022/08/18 05:18:25;;;;;;;10.65;5.70;;;;;;;;;;6123096;23;20205;-89
2022/08/18 05:21:31;;;;;;;10.10;5.72;;;;;;;;;;6123153;23;20176;-89
2022/08/18 05:24:38;;;;;;;15.32;5.85;;;;;;;;;;6141265;23;20169;-90
2022/08/18 05:27:44;;;;;;;12.77;5.70;;;;;;;;;;6122727;23;20189;-89
2022/08/18 05:30:49;;;;;;;9.07;5.22;;;;;;;;;;6123947;23;20207;-90
2022/08/18 05:33:56;;;;;;;12.95;5.45;;;;;;;;;;6124204;23;20274;-89
2022/08/18 05:37:08;;;;;;;12.65;5.45;;;;;;;;;;6125717;23;20225;-90
2022/08/18 05:40:15;;;;;;;10.35;5.63;;;;;;;;;;6124205;23;20173;-90
2022/08/18 05:43:20;;;;;;;11.38;6.03;;;;;;;;;;6122092;23;20173;-90
2022/08/18 05:46:39;;;;;;;7.32;5.40;;;;;;;;;;6122620;23;20259;-90
2022/08/18 05:49:48;;;;;;;9.02;5.15;;;;;;;;;;6121596;23;20166;-91
2022/08/18 05:52:54;;;;;;;12.00;5.45;;;;;;;;;;6121931;23;20197;-91
2022/08/18 05:59:28;;;;;;;11.50;5.28;;;;;;;;;;6120061;23;20197;-92
2022/08/18 06:02:35;;;;;;;7.63;5.22;;;;;;;;;;6121036;23;20249;-92
2022/08/18 06:05:47;;;;;;;11.80;5.32;;;;;;;;;;6121820;23;20164;-92
2022/08/18 06:08:57;;;;;;;6.43;5.03;;;;;;;;;;6123257;23;20165;-91
2022/08/18 06:12:07;;;;;;;15.27;5.82;;;;;;;;;;6122029;23;20168;-91
2022/08/18 06:15:15;;;;;;;12.05;5.20;;;;;;;;;;6121336;23;20193;-92
2022/08/18 06:18:31;;;;;;;7.72;5.28;;;;;;;;;;6121735;23;20632;-91
2022/08/18 06:21:44;;;;;;;12.02;5.18;;;;;;;;;;6122016;23;20165;-92
2022/08/18 06:24:52;;;;;;;8.98;4.88;;;;;;;;;;6121856;23;20157;-90
2022/08/18 06:28:02;;;;;;;8.75;5.35;;;;;;;;;;6122712;23;20226;-92
2022/08/18 06:31:11;;;;;;;13.98;6.85;;;;;;;;;;6123019;23;20173;-91
2022/08/18 06:34:23;;;;;;;7.05;5.00;;;;;;;;;;6123907;23;20188;-92
2022/08/18 06:37:33;;;;;;;6.78;4.93;;;;;;;;;;6122337;23;20166;-92
2022/08/18 06:40:39;;;;;;;7.82;5.15;;;;;;;;;;6122961;23;20169;-90
2022/08/18 06:44:02;;;;;;;10.82;5.53;;;;;;;;;;6124229;23;20165;-92
2022/08/18 06:47:14;;;;;;;9.48;5.28;;;;;;;;;;6125488;23;20177;-92
2022/08/18 06:50:22;;;;;;;8.27;4.82;;;;;;;;;;6125546;23;20168;-90
2022/08/18 06:53:42;;;;;;;6.90;5.00;;;;;;;;;;6123744;23;20181;-93
2022/08/18 06:56:50;;;;;;;12.63;5.35;;;;;;;;;;6122803;23;20153;-90
2022/08/18 06:59:59;;;;;;;10.48;5.40;;;;;;;;;;6123278;23;20282;-90
2022/08/18 07:03:06;;;;;;;6.45;4.68;;;;;;;;;;6123671;23;20165;-91
2022/08/18 07:06:25;;;;;;;8.82;5.80;;;;;;;;;;6124144;23;20172;-91
2022/08/18 07:09:34;;;;;;;8.80;5.47;;;;;;;;;;6121167;23;20244;-90
2022/08/18 07:12:42;;;;;;;7.97;5.13;;;;;;;;;;6120918;23;20203;-92
2022/08/18 07:15:48;;;;;;;7.47;4.82;;;;;;;;;;6122097;23;20156;-90
